createdAt,value
2022-08-31T00:02:10.857Z,55.60
2022-08-31T00:07:09.645Z,55.70
2022-08-31T00:12:08.699Z,55.80
2022-08-31T00:17:08.733Z,55.70
2022-08-31T00:22:07.745Z,55.60
2022-08-31T00:27:06.650Z,56.40
2022-08-31T00:32:05.816Z,58.10
2022-08-31T00:37:04.862Z,58.70
2022-08-31T00:42:04.923Z,60.90
2022-08-31T00:47:03.574Z,61.50
2022-08-31T00:52:02.556Z,63.40
2022-08-31T00:57:01.648Z,67.80
2022-08-31T01:02:01.474Z,69.30
2022-08-31T01:07:00.897Z,69.20
2022-08-31T01:11:59.792Z,70.10
2022-08-31T01:16:58.726Z,70.70
2022-08-31T01:21:57.609Z,72.00
2022-08-31T01:26:56.840Z,72.50
2022-08-31T01:31:56.995Z,73.10
2022-08-31T01:36:55.685Z,73.10
2022-08-31T01:41:54.882Z,73.50
2022-08-31T01:46:53.855Z,72.90
2022-08-31T01:51:52.826Z,72.80
2022-08-31T01:56:53.707Z,72.50
2022-08-31T02:01:52.960Z,72.30
2022-08-31T02:06:52.176Z,71.80
2022-08-31T02:11:51.687Z,71.90
2022-08-31T02:16:50.617Z,71.40
2022-08-31T02:21:50.732Z,71.00
2022-08-31T02:26:53.672Z,71.20
2022-08-31T02:31:51.453Z,71.40
2022-08-31T02:36:51.171Z,71.60
2022-08-31T02:41:54.068Z,71.90
2022-08-31T02:47:03.523Z,71.70
2022-08-31T02:52:02.956Z,71.80
2022-08-31T02:57:02.754Z,71.70
2022-08-31T03:02:01.825Z,71.80
2022-08-31T03:07:01.615Z,71.80
2022-08-31T03:12:00.750Z,71.60
2022-08-31T03:16:59.771Z,71.30
2022-08-31T03:21:58.772Z,71.30
2022-08-31T03:26:57.736Z,71.60
2022-08-31T03:31:57.289Z,72.60
2022-08-31T03:36:56.087Z,72.90
2022-08-31T03:41:55.713Z,73.20
2022-08-31T03:46:55.107Z,73.40
2022-08-31T03:51:55.996Z,73.60
2022-08-31T03:56:55.675Z,73.50
2022-08-31T04:02:13.514Z,73.60
2022-08-31T04:07:38.416Z,74.10
2022-08-31T04:12:39.746Z,74.40
2022-08-31T04:17:40.828Z,75.00
2022-08-31T04:22:56.659Z,74.90
2022-08-31T04:27:56.643Z,75.00
2022-08-31T04:32:57.184Z,74.80
2022-08-31T04:37:56.113Z,75.10
2022-08-31T04:42:56.228Z,75.10
2022-08-31T04:47:54.831Z,75.10
2022-08-31T04:53:03.365Z,75.20
2022-08-31T04:57:54.892Z,75.10
2022-08-31T05:02:54.277Z,75.10
2022-08-31T05:07:53.814Z,75.00
2022-08-31T05:12:54.295Z,74.80
2022-08-31T05:17:52.837Z,75.40
2022-08-31T05:22:51.857Z,75.20
2022-08-31T05:27:52.707Z,75.50
2022-08-31T05:32:53.860Z,75.30
2022-08-31T05:37:53.771Z,75.10
2022-08-31T05:42:53.319Z,75.30
2022-08-31T05:47:52.549Z,75.00
2022-08-31T05:52:52.061Z,75.00
2022-08-31T05:57:52.270Z,74.70
2022-08-31T06:02:53.796Z,74.70
2022-08-31T06:07:53.060Z,74.80
2022-08-31T06:12:53.198Z,74.60
2022-08-31T06:17:52.328Z,74.50
2022-08-31T06:22:55.620Z,73.90
2022-08-31T06:27:56.147Z,73.60
2022-08-31T06:32:58.786Z,73.80
2022-08-31T06:38:15.332Z,73.50
2022-08-31T06:43:28.037Z,73.40
2022-08-31T06:48:27.352Z,73.20
2022-08-31T06:53:44.432Z,73.40
2022-08-31T06:58:54.095Z,73.20
2022-08-31T07:03:52.341Z,73.30
2022-08-31T07:08:52.037Z,73.00
2022-08-31T07:13:51.369Z,72.80
2022-08-31T07:18:50.278Z,72.80
2022-08-31T07:23:50.000Z,72.70
2022-08-31T07:28:51.001Z,72.30
2022-08-31T07:33:50.193Z,72.00
2022-08-31T07:39:08.246Z,71.60
2022-08-31T07:44:08.578Z,71.20
2022-08-31T07:49:29.605Z,71.20
2022-08-31T07:54:39.449Z,70.40
2022-08-31T07:59:39.193Z,70.20
2022-08-31T08:04:59.219Z,68.10
2022-08-31T08:10:17.912Z,66.50
2022-08-31T08:15:33.883Z,65.30
2022-08-31T08:20:37.651Z,64.70
2022-08-31T08:25:39.990Z,63.80
2022-08-31T08:30:41.400Z,62.30
2022-08-31T08:35:40.982Z,60.60
2022-08-31T08:40:42.742Z,61.40
2022-08-31T08:45:46.136Z,61.50
2022-08-31T08:50:47.099Z,61.50
2022-08-31T08:55:46.409Z,61.80
2022-08-31T09:00:46.289Z,61.90
2022-08-31T09:05:46.858Z,61.80
2022-08-31T09:10:46.770Z,61.60
2022-08-31T09:15:48.128Z,61.40
2022-08-31T09:20:48.988Z,61.80
2022-08-31T09:25:52.616Z,59.70
2022-08-31T09:30:52.613Z,60.30
2022-08-31T09:35:55.398Z,58.70
2022-08-31T09:40:54.134Z,59.60
2022-08-31T09:45:52.985Z,58.90
2022-08-31T09:50:52.769Z,57.80
2022-08-31T09:55:52.129Z,57.50
2022-08-31T10:00:52.357Z,57.40
2022-08-31T10:05:54.831Z,56.80
2022-08-31T10:10:55.949Z,57.60
2022-08-31T10:15:55.286Z,57.30
2022-08-31T10:20:56.007Z,56.90
2022-08-31T10:25:57.157Z,56.80
2022-08-31T10:30:58.009Z,55.70
2022-08-31T10:35:57.238Z,55.00
2022-08-31T10:40:58.035Z,52.40
2022-08-31T10:45:57.096Z,53.70
2022-08-31T10:50:56.325Z,52.80
2022-08-31T10:55:56.208Z,51.50
2022-08-31T11:00:56.008Z,50.00
2022-08-31T11:05:56.120Z,51.10
2022-08-31T11:10:55.127Z,51.90
2022-08-31T11:15:54.198Z,52.20
2022-08-31T11:20:54.654Z,52.10
2022-08-31T11:25:53.186Z,52.00
2022-08-31T11:30:52.257Z,48.60
2022-08-31T11:35:53.401Z,49.70
2022-08-31T11:40:52.119Z,48.90
2022-08-31T11:45:52.064Z,49.20
2022-08-31T11:50:51.097Z,48.50
2022-08-31T11:55:51.313Z,49.10
2022-08-31T12:00:52.639Z,48.40
2022-08-31T12:05:56.276Z,48.20
2022-08-31T12:10:55.222Z,48.40
2022-08-31T12:15:54.815Z,47.60
2022-08-31T12:21:12.381Z,46.80
2022-08-31T12:26:11.145Z,46.90
2022-08-31T12:31:10.209Z,46.00
2022-08-31T12:36:09.237Z,46.40
2022-08-31T12:41:08.255Z,46.20
2022-08-31T12:46:07.298Z,47.50
2022-08-31T12:51:07.365Z,48.20
2022-08-31T12:56:06.123Z,48.90
2022-08-31T13:01:09.099Z,49.50
2022-08-31T13:06:07.745Z,49.60
2022-08-31T13:11:07.226Z,50.00
2022-08-31T13:16:07.541Z,49.70
2022-08-31T13:21:06.179Z,48.60
2022-08-31T13:26:06.944Z,48.60
2022-08-31T13:31:07.472Z,48.40
2022-08-31T13:36:06.089Z,48.20
2022-08-31T13:41:06.913Z,47.70
2022-08-31T13:46:06.489Z,47.80
2022-08-31T13:51:08.198Z,48.30
2022-08-31T13:56:07.337Z,49.70
2022-08-31T14:01:06.433Z,50.40
2022-08-31T14:06:05.381Z,50.80
2022-08-31T14:11:05.988Z,50.70
2022-08-31T14:16:07.133Z,50.80
2022-08-31T14:21:23.428Z,51.10
2022-08-31T14:26:07.290Z,51.10
2022-08-31T14:31:08.305Z,50.50
2022-08-31T14:36:09.467Z,49.00
2022-08-31T14:41:09.573Z,47.50
2022-08-31T14:46:08.381Z,47.70
2022-08-31T14:51:07.934Z,47.40
2022-08-31T14:56:07.251Z,47.10
2022-08-31T15:01:06.262Z,45.70
2022-08-31T15:06:05.175Z,46.50
2022-08-31T15:11:05.300Z,47.10
2022-08-31T15:16:04.745Z,47.30
2022-08-31T15:21:03.228Z,47.10
2022-08-31T15:26:05.845Z,47.00
2022-08-31T15:31:08.804Z,48.10
2022-08-31T15:36:08.825Z,48.80
2022-08-31T15:41:07.272Z,49.30
2022-08-31T15:46:11.003Z,49.70
2022-08-31T15:51:10.449Z,49.90
2022-08-31T15:56:09.289Z,49.90
2022-08-31T16:01:10.959Z,50.00
2022-08-31T16:06:10.843Z,50.10
2022-08-31T16:11:10.375Z,50.00
2022-08-31T16:16:09.372Z,49.70
2022-08-31T16:21:08.339Z,49.90
2022-08-31T16:26:09.329Z,49.70
2022-08-31T16:31:10.772Z,49.80
2022-08-31T16:36:09.745Z,49.80
2022-08-31T16:41:10.260Z,49.70
2022-08-31T16:46:36.984Z,49.50
2022-08-31T16:51:12.851Z,49.60
2022-08-31T16:56:12.680Z,49.50
2022-08-31T17:01:12.852Z,49.00
2022-08-31T17:06:12.704Z,49.00
2022-08-31T17:11:11.488Z,49.00
2022-08-31T17:16:10.837Z,49.30
2022-08-31T17:21:11.577Z,49.20
2022-08-31T17:26:12.220Z,49.40
2022-08-31T17:31:11.474Z,49.60
2022-08-31T17:36:10.624Z,49.90
2022-08-31T17:41:11.129Z,50.10
2022-08-31T17:46:10.833Z,50.20
2022-08-31T17:51:09.821Z,50.20
2022-08-31T17:56:08.804Z,50.30
2022-08-31T18:01:07.549Z,50.60
2022-08-31T18:06:06.644Z,50.80
2022-08-31T18:11:07.254Z,51.20
2022-08-31T18:16:06.646Z,51.60
2022-08-31T18:21:05.913Z,52.00
2022-08-31T18:26:05.635Z,52.10
2022-08-31T18:31:06.591Z,52.40
2022-08-31T18:36:05.798Z,52.70
2022-08-31T18:41:22.673Z,52.90
2022-08-31T18:46:21.567Z,53.10
2022-08-31T18:51:22.530Z,53.20
2022-08-31T18:56:21.621Z,53.40
2022-08-31T19:01:20.982Z,53.90
2022-08-31T19:06:20.690Z,54.10
2022-08-31T19:11:19.679Z,54.20
2022-08-31T19:16:18.679Z,54.20
2022-08-31T19:21:18.625Z,54.20
2022-08-31T19:26:17.527Z,54.40
2022-08-31T19:31:16.729Z,54.40
2022-08-31T19:36:15.561Z,54.40
2022-08-31T19:41:15.490Z,54.40
2022-08-31T19:46:14.513Z,54.40
2022-08-31T19:51:14.155Z,54.40
2022-08-31T19:56:16.309Z,54.20
2022-08-31T20:01:15.646Z,54.40
2022-08-31T20:06:14.524Z,54.50
2022-08-31T20:11:21.300Z,54.60
2022-08-31T20:16:17.725Z,54.60
2022-08-31T20:21:17.141Z,54.80
2022-08-31T20:26:16.719Z,54.90
2022-08-31T20:31:17.932Z,54.90
2022-08-31T20:36:18.494Z,55.10
2022-08-31T20:41:17.637Z,55.10
2022-08-31T20:46:35.985Z,55.20
2022-08-31T20:51:39.110Z,55.30
2022-08-31T20:56:36.654Z,55.40
2022-08-31T21:01:35.657Z,55.40
2022-08-31T21:06:34.548Z,55.40
2022-08-31T21:11:35.709Z,55.30
2022-08-31T21:16:35.418Z,55.30
2022-08-31T21:21:34.438Z,55.30
2022-08-31T21:26:36.606Z,55.30
2022-08-31T21:31:34.570Z,55.30
2022-08-31T21:36:33.858Z,55.20
2022-08-31T21:41:33.732Z,55.30
2022-08-31T21:46:32.625Z,55.30
2022-08-31T21:51:31.609Z,55.30
2022-08-31T21:56:30.617Z,55.30
2022-08-31T22:01:29.883Z,55.30
2022-08-31T22:06:30.560Z,55.70
2022-08-31T22:11:29.742Z,55.50
2022-08-31T22:16:28.834Z,55.60
2022-08-31T22:21:28.615Z,55.80
2022-08-31T22:26:27.540Z,55.90
2022-08-31T22:31:27.495Z,55.90
2022-08-31T22:36:31.495Z,56.40
2022-08-31T22:41:29.065Z,56.40
2022-08-31T22:46:27.915Z,56.60
2022-08-31T22:51:27.006Z,56.90
2022-08-31T22:56:25.775Z,57.00
2022-08-31T23:01:24.762Z,57.30
2022-08-31T23:06:24.117Z,57.30
2022-08-31T23:11:22.711Z,57.30
2022-08-31T23:16:23.774Z,57.50
2022-08-31T23:21:24.197Z,57.60
2022-08-31T23:26:25.694Z,57.80
2022-08-31T23:31:25.866Z,58.10
2022-08-31T23:36:26.013Z,58.20
2022-08-31T23:41:26.271Z,58.80
2022-08-31T23:46:25.684Z,59.10
2022-08-31T23:51:26.145Z,59.00
2022-08-31T23:56:27.620Z,58.90
